Time;durP1;ratioP1;P1;durP2;ratioP2;P2;SDS_P1;SDS_P2;PMS_P1;PMS_P2;Temp;Humidity;BMP_temperature;BMP_pressure;BME280_temperature;BME280_humidity;BME280_pressure;Samples;Min_cycle;Max_cycle;Signal;HPM_P1;HPM_P2
2021/04/10 00:01:49;;;;;;;;;;;22.80;39.20;;;;;;1544424;75;717;-60
2021/04/10 00:03:51;;;;;;;;;;;22.90;39.40;;;;;;1556534;76;755;-59
2021/04/10 00:05:53;;;;;;;;;;;22.90;39.40;;;;;;1546777;75;730;-60
2021/04/10 00:07:54;;;;;;;;;;;22.90;39.50;;;;;;1545192;76;818;-59
2021/04/10 00:09:56;;;;;;;;;;;22.90;39.60;;;;;;1551920;75;1127;-61
2021/04/10 00:11:58;;;;;;;;;;;22.90;39.70;;;;;;1562195;75;780;-59
2021/04/10 00:14:00;;;;;;;;;;;22.90;39.70;;;;;;1549601;75;792;-58
2021/04/10 00:16:02;;;;;;;;;;;22.90;39.60;;;;;;1563569;76;1945;-61
2021/04/10 00:18:04;;;;;;;;;;;22.90;39.60;;;;;;1563095;75;697;-59
2021/04/10 00:20:07;;;;;;;;;;;22.90;39.40;;;;;;1550227;75;1090;-59
2021/04/10 00:22:09;;;;;;;;;;;22.90;39.50;;;;;;1541977;75;1108;-59
2021/04/10 00:24:11;;;;;;;;;;;22.90;39.40;;;;;;1557483;75;706;-59
2021/04/10 00:26:13;;;;;;;;;;;22.90;39.50;;;;;;1554225;76;700;-60
2021/04/10 00:28:15;;;;;;;;;;;22.90;39.30;;;;;;1545472;76;1149;-58
2021/04/10 00:30:17;;;;;;;;;;;22.90;39.40;;;;;;1543724;75;803;-59
2021/04/10 00:32:19;;;;;;;;;;;22.80;39.20;;;;;;1560286;76;745;-57
2021/04/10 00:34:21;;;;;;;;;;;23.00;39.40;;;;;;1556148;75;1938;-58
2021/04/10 00:36:23;;;;;;;;;;;22.90;39.40;;;;;;1549349;76;703;-58
2021/04/10 00:38:25;;;;;;;;;;;22.90;39.30;;;;;;1551303;75;1132;-58
2021/04/10 00:40:27;;;;;;;;;;;22.90;39.30;;;;;;1540672;76;796;-60
2021/04/10 00:42:29;;;;;;;;;;;22.90;39.30;;;;;;1554893;75;806;-57
2021/04/10 00:44:30;;;;;;;;;;;22.90;39.40;;;;;;1544472;75;697;-59
2021/04/10 00:46:32;;;;;;;;;;;22.80;39.30;;;;;;1560764;76;774;-59
2021/04/10 00:48:34;;;;;;;;;;;22.90;39.50;;;;;;1537838;75;1089;-59
2021/04/10 00:50:36;;;;;;;;;;;22.90;39.60;;;;;;1560891;75;819;-60
2021/04/10 00:52:38;;;;;;;;;;;22.90;39.60;;;;;;1552437;75;812;-58
2021/04/10 00:54:40;;;;;;;;;;;22.90;39.50;;;;;;1548429;75;1938;-58
2021/04/10 00:56:42;;;;;;;;;;;22.90;39.50;;;;;;1546525;75;788;-61
2021/04/10 00:58:43;;;;;;;;;;;22.90;39.50;;;;;;1560025;75;1156;-60
2021/04/10 01:00:45;;;;;;;;;;;22.80;39.40;;;;;;1542974;75;707;-58
2021/04/10 01:02:47;;;;;;;;;;;22.90;39.40;;;;;;1550040;75;698;-59
2021/04/10 01:04:49;;;;;;;;;;;22.90;39.50;;;;;;1554478;75;817;-58
2021/04/10 01:06:51;;;;;;;;;;;22.80;39.30;;;;;;1536641;76;781;-60
2021/04/10 01:08:53;;;;;;;;;;;22.90;39.50;;;;;;1541068;76;1093;-60
2021/04/10 01:11:00;;;;;;;;;;;22.90;39.50;;;;;;1550131;75;782;-62
2021/04/10 01:13:03;;;;;;;;;;;22.90;39.50;;;;;;1551236;75;2045;-58
2021/04/10 01:15:12;;;;;;;;;;;22.90;39.50;;;;;;1544874;75;1935;-59
2021/04/10 01:17:16;;;;;;;;;;;22.80;39.30;;;;;;1564252;75;1138;-60
2021/04/10 01:19:22;;;;;;;;;;;22.80;39.20;;;;;;1547035;75;1132;-59
2021/04/10 01:21:26;;;;;;;;;;;22.90;39.40;;;;;;1541210;75;1733;-57
2021/04/10 01:23:44;;;;;;;;;;;22.90;39.30;;;;;;1552523;75;785;-60
2021/04/10 01:25:54;;;;;;;;;;;22.80;39.20;;;;;;1544169;75;1756;-60
2021/04/10 01:27:57;;;;;;;;;;;22.80;39.20;;;;;;1547039;76;1869;-61
2021/04/10 01:30:03;;;;;;;;;;;22.80;39.20;;;;;;1555317;76;1124;-60
2021/04/10 01:32:05;;;;;;;;;;;22.80;39.20;;;;;;1546615;75;1788;-58
2021/04/10 01:34:08;;;;;;;;;;;22.80;39.30;;;;;;1546533;76;735;-57
2021/04/10 01:36:09;;;;;;;;;;;22.80;39.30;;;;;;1551512;76;1946;-59
2021/04/10 01:38:17;;;;;;;;;;;22.90;39.40;;;;;;1532891;75;664;-59
2021/04/10 01:40:17;;;;;;;;;;;22.90;39.30;;;;;;1550977;75;1824;-60
2021/04/10 01:42:19;;;;;;;;;;;22.80;39.20;;;;;;1550509;75;774;-59
2021/04/10 01:44:21;;;;;;;;;;;22.80;39.20;;;;;;1552319;75;667;-58
2021/04/10 01:46:23;;;;;;;;;;;22.80;39.20;;;;;;1544891;75;706;-61
2021/04/10 01:48:25;;;;;;;;;;;22.90;39.20;;;;;;1550446;75;1124;-59
2021/04/10 01:50:27;;;;;;;;;;;22.80;39.00;;;;;;1505273;77;708;-59
2021/04/10 01:52:29;;;;;;;;;;;22.90;39.20;;;;;;1527927;77;857;-62
2021/04/10 01:54:32;;;;;;;;;;;22.90;39.20;;;;;;1516279;77;747;-59
2021/04/10 01:56:34;;;;;;;;;;;22.90;39.20;;;;;;1485862;78;1939;-61
2021/04/10 01:58:36;;;;;;;;;;;22.90;39.20;;;;;;1540332;76;1163;-59
2021/04/10 02:00:39;;;;;;;;;;;22.90;39.30;;;;;;1543624;75;822;-59
2021/04/10 02:02:41;;;;;;;;;;;22.80;39.10;;;;;;1541504;75;784;-58
2021/04/10 02:04:43;;;;;;;;;;;22.80;39.20;;;;;;1540541;75;788;-58
2021/04/10 02:06:45;;;;;;;;;;;22.80;39.20;;;;;;1549687;75;730;-59
2021/04/10 02:08:47;;;;;;;;;;;22.90;39.30;;;;;;1544622;75;1143;-59
2021/04/10 02:10:49;;;;;;;;;;;22.90;39.30;;;;;;1557422;75;777;-59
2021/04/10 02:12:51;;;;;;;;;;;22.90;39.30;;;;;;1543552;75;783;-61
2021/04/10 02:14:53;;;;;;;;;;;22.90;39.40;;;;;;1548781;75;1920;-61
2021/04/10 02:16:55;;;;;;;;;;;22.90;39.40;;;;;;1547122;75;745;-59
2021/04/10 02:18:57;;;;;;;;;;;22.80;39.20;;;;;;1547728;75;1168;-59
2021/04/10 02:21:00;;;;;;;;;;;22.80;39.40;;;;;;1542946;76;741;-59
2021/04/10 02:23:03;;;;;;;;;;;22.80;39.50;;;;;;1533679;75;728;-60
2021/04/10 02:25:06;;;;;;;;;;;22.80;39.70;;;;;;1558684;75;797;-59
2021/04/10 02:27:08;;;;;;;;;;;22.90;40.00;;;;;;1556732;75;722;-59
2021/04/10 02:29:10;;;;;;;;;;;22.90;40.00;;;;;;1545764;75;1086;-60
2021/04/10 02:31:13;;;;;;;;;;;22.90;40.00;;;;;;1544039;76;688;-59
2021/04/10 02:33:17;;;;;;;;;;;22.90;39.90;;;;;;1557453;75;764;-57
2021/04/10 02:35:26;;;;;;;;;;;22.90;40.00;;;;;;1553048;75;1936;-58
2021/04/10 02:37:28;;;;;;;;;;;22.90;39.90;;;;;;1556124;76;826;-60
2021/04/10 02:39:30;;;;;;;;;;;22.90;40.00;;;;;;1546583;75;1185;-59
2021/04/10 02:41:32;;;;;;;;;;;22.90;39.90;;;;;;1554849;75;833;-61
2021/04/10 02:43:35;;;;;;;;;;;22.90;39.80;;;;;;1524158;75;713;-59
2021/04/10 02:45:37;;;;;;;;;;;22.90;39.80;;;;;;1541158;76;783;-60
2021/04/10 02:47:39;;;;;;;;;;;22.80;39.60;;;;;;1543969;75;799;-59
2021/04/10 02:49:41;;;;;;;;;;;22.80;39.70;;;;;;1541816;75;1121;-59
2021/04/10 02:51:44;;;;;;;;;;;22.80;39.50;;;;;;1545831;75;807;-62
2021/04/10 02:53:46;;;;;;;;;;;22.80;39.50;;;;;;1542996;75;755;-58
2021/04/10 02:55:48;;;;;;;;;;;22.80;39.50;;;;;;1548909;75;1942;-58
2021/04/10 02:57:50;;;;;;;;;;;22.80;39.50;;;;;;1547234;75;799;-59
2021/04/10 02:59:52;;;;;;;;;;;22.70;39.40;;;;;;1552562;75;1157;-61
2021/04/10 03:01:54;;;;;;;;;;;22.80;39.40;;;;;;1561784;76;759;-58
2021/04/10 03:03:56;;;;;;;;;;;22.80;39.40;;;;;;1550214;75;800;-59
2021/04/10 03:05:58;;;;;;;;;;;22.80;39.50;;;;;;1554221;76;750;-61
2021/04/10 03:08:00;;;;;;;;;;;22.80;39.40;;;;;;1542947;75;768;-61
2021/04/10 03:10:02;;;;;;;;;;;22.70;39.50;;;;;;1549574;75;1190;-59
2021/04/10 03:12:04;;;;;;;;;;;22.70;39.60;;;;;;1553192;75;779;-61
2021/04/10 03:14:06;;;;;;;;;;;22.70;39.60;;;;;;1551846;76;756;-59
2021/04/10 03:16:08;;;;;;;;;;;22.70;39.60;;;;;;1550803;75;1943;-61
2021/04/10 03:18:10;;;;;;;;;;;22.80;39.50;;;;;;1537519;75;719;-60
2021/04/10 03:20:15;;;;;;;;;;;22.80;39.70;;;;;;1544120;75;1129;-59
2021/04/10 03:22:17;;;;;;;;;;;22.70;39.60;;;;;;1545931;75;783;-57
2021/04/10 03:24:19;;;;;;;;;;;22.70;39.60;;;;;;1548792;75;776;-59
2021/04/10 03:26:21;;;;;;;;;;;22.80;39.60;;;;;;1535858;75;709;-62
2021/04/10 03:28:22;;;;;;;;;;;22.80;39.50;;;;;;1532053;75;1153;-59
2021/04/10 03:30:24;;;;;;;;;;;22.80;39.50;;;;;;1550944;75;774;-57
2021/04/10 03:32:26;;;;;;;;;;;22.90;39.60;;;;;;1550054;75;783;-59
2021/04/10 03:34:28;;;;;;;;;;;22.90;39.40;;;;;;1551139;76;806;-58
2021/04/10 03:36:30;;;;;;;;;;;22.80;39.20;;;;;;1545748;76;1947;-59
2021/04/10 03:38:32;;;;;;;;;;;22.90;39.30;;;;;;1551431;75;1076;-59
2021/04/10 03:40:34;;;;;;;;;;;22.90;39.20;;;;;;1543466;75;748;-62
2021/04/10 03:42:40;;;;;;;;;;;23.00;39.30;;;;;;1552454;75;718;-57
2021/04/10 03:44:42;;;;;;;;;;;22.90;39.20;;;;;;1543010;75;2144;-58
2021/04/10 03:46:44;;;;;;;;;;;23.00;39.20;;;;;;1547058;75;730;-60
2021/04/10 03:48:46;;;;;;;;;;;22.90;39.30;;;;;;1504562;77;1152;-61
2021/04/10 03:50:47;;;;;;;;;;;23.00;39.20;;;;;;1539880;76;734;-57
2021/04/10 03:52:51;;;;;;;;;;;22.90;39.30;;;;;;1543322;75;773;-59
2021/04/10 03:54:53;;;;;;;;;;;22.90;39.30;;;;;;1542620;76;1588;-58
2021/04/10 03:56:55;;;;;;;;;;;23.00;39.30;;;;;;1545326;75;1919;-58
2021/04/10 03:58:56;;;;;;;;;;;23.10;39.30;;;;;;1561595;75;1172;-61
2021/04/10 04:00:58;;;;;;;;;;;23.00;39.20;;;;;;1557976;76;718;-59
2021/04/10 04:03:00;;;;;;;;;;;23.00;39.30;;;;;;1550493;75;602;-57
2021/04/10 04:05:02;;;;;;;;;;;22.90;39.40;;;;;;1535573;70;218946;-67
2021/04/10 04:07:04;;;;;;;;;;;23.00;39.40;;;;;;1596595;73;667;-66
2021/04/10 04:09:06;;;;;;;;;;;22.90;39.70;;;;;;1599964;73;734;-65
2021/04/10 04:11:08;;;;;;;;;;;23.00;39.50;;;;;;1603722;73;750;-65
2021/04/10 04:13:10;;;;;;;;;;;23.00;39.60;;;;;;1594662;73;768;-66
2021/04/10 04:15:12;;;;;;;;;;;23.00;39.50;;;;;;1597540;73;1279;-67
2021/04/10 04:17:14;;;;;;;;;;;23.00;39.60;;;;;;1573103;74;1941;-65
2021/04/10 04:19:15;;;;;;;;;;;23.00;39.70;;;;;;1572733;74;725;-62
2021/04/10 04:21:17;;;;;;;;;;;22.80;39.70;;;;;;1572436;74;645;-65
2021/04/10 04:23:19;;;;;;;;;;;22.90;39.60;;;;;;1573082;74;800;-67
2021/04/10 04:25:21;;;;;;;;;;;22.90;39.40;;;;;;1571224;74;1143;-65
2021/04/10 04:27:23;;;;;;;;;;;23.00;39.20;;;;;;1572416;74;748;-68
2021/04/10 04:29:25;;;;;;;;;;;23.00;39.30;;;;;;1570748;74;800;-66
2021/04/10 04:31:27;;;;;;;;;;;23.00;39.10;;;;;;1571195;74;712;-66
2021/04/10 04:33:28;;;;;;;;;;;23.00;39.20;;;;;;1567687;74;746;-66
2021/04/10 04:35:30;;;;;;;;;;;23.00;39.40;;;;;;1570284;74;1139;-65
2021/04/10 04:37:32;;;;;;;;;;;23.00;39.40;;;;;;1567125;74;1939;-66
2021/04/10 04:39:34;;;;;;;;;;;22.90;39.30;;;;;;1572950;74;801;-68
2021/04/10 04:41:36;;;;;;;;;;;23.00;39.30;;;;;;1571626;74;802;-66
2021/04/10 04:43:38;;;;;;;;;;;22.90;39.20;;;;;;1572536;74;822;-66
2021/04/10 04:45:40;;;;;;;;;;;22.90;39.20;;;;;;1570906;74;1117;-67
2021/04/10 04:47:41;;;;;;;;;;;23.00;39.20;;;;;;1579354;74;825;-66
2021/04/10 04:49:43;;;;;;;;;;;22.90;39.30;;;;;;1572428;74;742;-66
2021/04/10 04:51:45;;;;;;;;;;;22.90;39.30;;;;;;1564194;74;756;-64
2021/04/10 04:53:47;;;;;;;;;;;22.90;39.40;;;;;;1571999;74;731;-66
2021/04/10 04:55:49;;;;;;;;;;;22.90;39.40;;;;;;1573881;74;1930;-67
2021/04/10 04:57:51;;;;;;;;;;;22.90;39.40;;;;;;1579524;74;807;-66
2021/04/10 04:59:53;;;;;;;;;;;22.90;39.40;;;;;;1573419;74;795;-66
2021/04/10 05:01:55;;;;;;;;;;;22.90;39.40;;;;;;1571008;74;723;-65
2021/04/10 05:03:57;;;;;;;;;;;22.90;39.40;;;;;;1573393;74;831;-66
2021/04/10 05:05:58;;;;;;;;;;;22.90;39.40;;;;;;1571360;74;1184;-66
2021/04/10 05:08:00;;;;;;;;;;;22.90;39.60;;;;;;1571363;74;689;-65
2021/04/10 05:10:02;;;;;;;;;;;22.90;39.50;;;;;;1572019;74;586;-66
2021/04/10 05:12:05;;;;;;;;;;;22.90;39.50;;;;;;1573012;74;717;-68
2021/04/10 05:14:06;;;;;;;;;;;22.90;39.40;;;;;;1572005;74;802;-66
2021/04/10 05:16:08;;;;;;;;;;;22.90;39.50;;;;;;1572068;74;1943;-67
2021/04/10 05:18:10;;;;;;;;;;;23.00;39.40;;;;;;1571969;74;796;-66
2021/04/10 05:20:12;;;;;;;;;;;22.90;39.40;;;;;;1573247;74;822;-66
2021/04/10 05:22:14;;;;;;;;;;;23.00;39.50;;;;;;1566276;74;809;-66
2021/04/10 05:24:16;;;;;;;;;;;22.90;39.40;;;;;;1559301;74;812;-65
2021/04/10 05:26:18;;;;;;;;;;;23.00;39.40;;;;;;1571524;74;1127;-66
2021/04/10 05:28:20;;;;;;;;;;;22.90;39.40;;;;;;1567654;74;771;-66
2021/04/10 05:30:22;;;;;;;;;;;23.00;39.40;;;;;;1559522;74;771;-66
2021/04/10 05:32:24;;;;;;;;;;;22.90;39.40;;;;;;1567798;74;774;-67
2021/04/10 05:34:25;;;;;;;;;;;22.90;39.30;;;;;;1564071;74;791;-66
2021/04/10 05:36:28;;;;;;;;;;;22.90;39.40;;;;;;1572474;74;1954;-66
2021/04/10 05:38:30;;;;;;;;;;;22.90;39.40;;;;;;1572415;74;778;-67
2021/04/10 05:40:32;;;;;;;;;;;22.90;39.50;;;;;;1572645;74;753;-67
2021/04/10 05:42:34;;;;;;;;;;;23.00;39.50;;;;;;1571081;74;790;-66
2021/04/10 05:44:36;;;;;;;;;;;23.00;39.50;;;;;;1572564;74;790;-66
2021/04/10 05:46:38;;;;;;;;;;;23.00;39.40;;;;;;1572769;74;1116;-66
2021/04/10 05:48:39;;;;;;;;;;;22.90;39.40;;;;;;1572906;74;750;-66
2021/04/10 05:50:41;;;;;;;;;;;22.90;39.50;;;;;;1573975;74;813;-66
2021/04/10 05:52:43;;;;;;;;;;;22.90;39.60;;;;;;1584053;74;766;-66
2021/04/10 05:54:45;;;;;;;;;;;22.90;39.70;;;;;;1575976;74;788;-66
2021/04/10 05:56:47;;;;;;;;;;;23.00;39.80;;;;;;1571198;74;1916;-65
2021/04/10 05:58:49;;;;;;;;;;;23.00;39.90;;;;;;1579960;74;818;-66
2021/04/10 06:00:51;;;;;;;;;;;23.00;40.00;;;;;;1577442;74;770;-67
2021/04/10 06:02:53;;;;;;;;;;;23.00;39.90;;;;;;1575884;74;807;-65
2021/04/10 06:04:55;;;;;;;;;;;23.00;39.90;;;;;;1570624;74;1152;-65
2021/04/10 06:06:57;;;;;;;;;;;23.00;39.70;;;;;;1571383;74;744;-66
2021/04/10 06:08:59;;;;;;;;;;;23.00;39.70;;;;;;1573028;74;778;-66
2021/04/10 06:11:01;;;;;;;;;;;23.00;39.50;;;;;;1581299;74;722;-65
2021/04/10 06:13:02;;;;;;;;;;;23.00;39.50;;;;;;1575462;74;717;-65
2021/04/10 06:15:08;;;;;;;;;;;23.00;39.60;;;;;;1571473;74;1142;-66
2021/04/10 06:17:10;;;;;;;;;;;23.00;39.60;;;;;;1570948;74;1928;-65
2021/04/10 06:19:12;;;;;;;;;;;22.90;39.50;;;;;;1579943;74;832;-62
2021/04/10 06:21:14;;;;;;;;;;;23.00;39.60;;;;;;1577297;74;803;-65
2021/04/10 06:23:16;;;;;;;;;;;23.00;39.60;;;;;;1570655;74;742;-65
2021/04/10 06:25:18;;;;;;;;;;;23.00;39.60;;;;;;1584237;74;1090;-65
2021/04/10 06:27:19;;;;;;;;;;;23.00;39.50;;;;;;1576222;74;761;-66
2021/04/10 06:29:21;;;;;;;;;;;22.90;39.50;;;;;;1578538;74;706;-65
2021/04/10 06:31:23;;;;;;;;;;;22.90;39.60;;;;;;1585422;74;785;-66
2021/04/10 06:33:25;;;;;;;;;;;22.90;39.50;;;;;;1567102;74;726;-67
2021/04/10 06:35:27;;;;;;;;;;;23.00;39.50;;;;;;1572824;74;1167;-67
2021/04/10 06:37:29;;;;;;;;;;;22.90;39.50;;;;;;1572020;74;1951;-66
2021/04/10 06:39:31;;;;;;;;;;;22.90;39.50;;;;;;1565213;74;799;-66
2021/04/10 06:41:36;;;;;;;;;;;23.00;39.50;;;;;;1563676;74;740;-65
2021/04/10 06:43:38;;;;;;;;;;;22.90;39.50;;;;;;1570400;74;837;-67
2021/04/10 06:45:40;;;;;;;;;;;22.90;39.70;;;;;;1570113;74;1151;-67
2021/04/10 06:47:42;;;;;;;;;;;23.00;39.70;;;;;;1574229;74;832;-67
2021/04/10 06:49:43;;;;;;;;;;;23.00;39.60;;;;;;1568396;74;844;-67
2021/04/10 06:51:45;;;;;;;;;;;23.00;39.60;;;;;;1566172;74;793;-65
2021/04/10 06:53:47;;;;;;;;;;;23.00;39.70;;;;;;1568398;74;712;-66
2021/04/10 06:55:53;;;;;;;;;;;23.00;39.50;;;;;;1565231;74;1153;-67
2021/04/10 06:58:00;;;;;;;;;;;23.00;39.60;;;;;;1570228;74;1903;-67
2021/04/10 07:00:03;;;;;;;;;;;23.00;39.70;;;;;;1553430;74;2144;-66
2021/04/10 07:02:06;;;;;;;;;;;23.00;39.70;;;;;;1564893;74;711;-67
2021/04/10 07:04:08;;;;;;;;;;;23.00;39.70;;;;;;1557928;74;743;-67
2021/04/10 07:06:11;;;;;;;;;;;23.00;39.70;;;;;;1562943;74;1168;-66
2021/04/10 07:08:14;;;;;;;;;;;23.00;39.50;;;;;;1557342;74;890;-68
2021/04/10 07:10:15;;;;;;;;;;;23.00;39.60;;;;;;1560191;74;810;-66
2021/04/10 07:12:17;;;;;;;;;;;23.00;39.70;;;;;;1564087;74;786;-68
2021/04/10 07:14:19;;;;;;;;;;;23.10;39.80;;;;;;1551055;74;773;-67
2021/04/10 07:16:21;;;;;;;;;;;23.00;39.70;;;;;;1553991;74;1136;-67
2021/04/10 07:18:25;;;;;;;;;;;23.00;39.70;;;;;;1560037;74;1941;-68
2021/04/10 07:20:34;;;;;;;;;;;23.00;39.70;;;;;;1566227;74;2066;-67
2021/04/10 07:22:36;;;;;;;;;;;23.00;39.70;;;;;;1556082;74;813;-69
2021/04/10 07:24:38;;;;;;;;;;;23.00;39.80;;;;;;1564278;74;808;-66
2021/04/10 07:26:47;;;;;;;;;;;23.00;39.80;;;;;;1560534;74;1124;-67
2021/04/10 07:28:49;;;;;;;;;;;23.00;39.90;;;;;;1560531;74;782;-66
2021/04/10 07:30:55;;;;;;;;;;;23.00;39.70;;;;;;1568891;74;777;-66
2021/04/10 07:32:56;;;;;;;;;;;23.00;39.90;;;;;;1576856;74;729;-69
2021/04/10 07:34:59;;;;;;;;;;;23.00;40.00;;;;;;1558305;74;1136;-65
2021/04/10 07:37:01;;;;;;;;;;;23.00;40.20;;;;;;1556016;74;1932;-64
2021/04/10 07:39:03;;;;;;;;;;;23.00;40.20;;;;;;1565865;74;804;-65
2021/04/10 07:41:06;;;;;;;;;;;22.90;39.90;;;;;;1565586;74;653;-66
2021/04/10 07:43:08;;;;;;;;;;;23.00;40.10;;;;;;1558229;74;903;-65
2021/04/10 07:45:11;;;;;;;;;;;23.00;40.00;;;;;;1561658;74;1133;-64
2021/04/10 07:47:13;;;;;;;;;;;23.00;39.50;;;;;;1532069;74;1393;-64
2021/04/10 07:49:15;;;;;;;;;;;23.00;39.30;;;;;;1555993;74;754;-63
2021/04/10 07:51:17;;;;;;;;;;;23.00;38.90;;;;;;1559829;74;761;-65
2021/04/10 07:53:22;;;;;;;;;;;23.00;38.60;;;;;;1559227;74;712;-65
2021/04/10 07:55:41;;;;;;;;;;;23.00;38.20;;;;;;1563755;74;1215;-65
2021/04/10 07:57:43;;;;;;;;;;;22.90;38.10;;;;;;1552121;74;1931;-65
2021/04/10 07:59:53;;;;;;;;;;;22.90;37.80;;;;;;1559451;74;753;-65
2021/04/10 08:01:57;;;;;;;;;;;22.90;37.70;;;;;;1559288;74;807;-64
2021/04/10 08:03:58;;;;;;;;;;;23.00;37.60;;;;;;1557758;74;1903;-64
2021/04/10 08:06:07;;;;;;;;;;;23.00;37.50;;;;;;1537700;75;1207;-65
2021/04/10 08:08:09;;;;;;;;;;;22.90;37.40;;;;;;1563391;74;816;-65
2021/04/10 08:10:11;;;;;;;;;;;22.90;37.30;;;;;;1555380;74;680;-64
2021/04/10 08:12:13;;;;;;;;;;;22.90;37.40;;;;;;1558288;74;737;-65
2021/04/10 08:14:15;;;;;;;;;;;23.00;37.30;;;;;;1554124;74;729;-61
2021/04/10 08:16:18;;;;;;;;;;;23.00;37.20;;;;;;1563064;74;1093;-64
2021/04/10 08:18:23;;;;;;;;;;;22.90;37.20;;;;;;1559573;74;1939;-65
2021/04/10 08:20:29;;;;;;;;;;;22.90;37.10;;;;;;1561032;74;774;-65
2021/04/10 08:22:31;;;;;;;;;;;22.90;37.10;;;;;;1564348;74;814;-64
2021/04/10 08:24:39;;;;;;;;;;;22.90;37.20;;;;;;1572456;74;721;-65
2021/04/10 08:26:41;;;;;;;;;;;23.00;37.30;;;;;;1563811;74;1120;-63
2021/04/10 08:28:43;;;;;;;;;;;23.00;37.30;;;;;;1565954;74;770;-65
2021/04/10 08:30:45;;;;;;;;;;;22.90;37.30;;;;;;1566893;74;816;-64
2021/04/10 08:32:47;;;;;;;;;;;22.90;37.20;;;;;;1571662;74;767;-65
2021/04/10 08:34:49;;;;;;;;;;;22.80;37.20;;;;;;1574938;74;711;-65
2021/04/10 08:36:52;;;;;;;;;;;22.80;37.30;;;;;;1584517;74;1071;-63
2021/04/10 08:38:54;;;;;;;;;;;22.80;37.30;;;;;;1575633;74;1906;-63
2021/04/10 08:40:57;;;;;;;;;;;22.80;37.30;;;;;;1570902;74;814;-65
2021/04/10 08:42:59;;;;;;;;;;;22.90;37.40;;;;;;1576224;74;781;-65
2021/04/10 08:45:01;;;;;;;;;;;22.90;37.30;;;;;;1578665;74;1183;-65
2021/04/10 08:47:03;;;;;;;;;;;22.90;37.30;;;;;;1567201;74;721;-64
2021/04/10 08:49:05;;;;;;;;;;;22.90;37.30;;;;;;1572100;74;829;-65
2021/04/10 08:51:08;;;;;;;;;;;22.90;37.10;;;;;;1566380;74;854;-65
2021/04/10 08:53:10;;;;;;;;;;;22.90;37.10;;;;;;1573289;74;772;-64
2021/04/10 08:55:12;;;;;;;;;;;22.90;37.10;;;;;;1571875;74;1388;-65
2021/04/10 08:57:14;;;;;;;;;;;22.90;37.00;;;;;;1579303;74;1916;-65
2021/04/10 08:59:17;;;;;;;;;;;22.90;36.90;;;;;;1581303;74;731;-64
2021/04/10 09:01:22;;;;;;;;;;;22.90;36.90;;;;;;1590683;74;760;-65
2021/04/10 09:03:42;;;;;;;;;;;22.90;36.90;;;;;;1572904;74;718;-65
2021/04/10 09:05:45;;;;;;;;;;;22.90;36.90;;;;;;1565272;74;1207;-65
2021/04/10 09:07:49;;;;;;;;;;;22.90;36.90;;;;;;1576430;74;802;-65
2021/04/10 09:09:51;;;;;;;;;;;22.90;36.80;;;;;;1575728;74;882;-66
2021/04/10 09:11:55;;;;;;;;;;;22.90;36.80;;;;;;1579425;74;754;-66
2021/04/10 09:13:57;;;;;;;;;;;22.90;36.80;;;;;;1571421;74;1974;-65
2021/04/10 09:16:17;;;;;;;;;;;22.90;36.80;;;;;;1577454;74;1154;-66
2021/04/10 09:18:19;;;;;;;;;;;22.90;36.80;;;;;;1588723;74;1914;-67
2021/04/10 09:20:22;;;;;;;;;;;22.80;36.50;;;;;;1577434;74;751;-66
2021/04/10 09:22:24;;;;;;;;;;;22.90;36.70;;;;;;1567020;74;1730;-65
2021/04/10 09:24:27;;;;;;;;;;;22.90;36.70;;;;;;1566558;74;726;-65
2021/04/10 09:26:29;;;;;;;;;;;22.90;36.60;;;;;;1577646;74;1150;-65
2021/04/10 09:28:32;;;;;;;;;;;22.90;36.70;;;;;;1570684;74;736;-65
2021/04/10 09:30:38;;;;;;;;;;;22.90;36.60;;;;;;1567561;74;785;-66
2021/04/10 09:32:40;;;;;;;;;;;22.90;36.60;;;;;;1564532;74;932;-66
2021/04/10 09:34:46;;;;;;;;;;;22.90;36.50;;;;;;1569472;74;762;-65
2021/04/10 09:36:48;;;;;;;;;;;22.90;36.50;;;;;;1565098;74;1101;-67
2021/04/10 09:38:50;;;;;;;;;;;22.90;36.50;;;;;;1563427;74;1895;-67
2021/04/10 09:40:52;;;;;;;;;;;22.80;36.40;;;;;;1559740;74;759;-65
2021/04/10 09:42:54;;;;;;;;;;;22.90;36.50;;;;;;1556658;74;810;-67
2021/04/10 09:45:06;;;;;;;;;;;22.80;36.30;;;;;;1560751;74;1149;-67
2021/04/10 09:47:08;;;;;;;;;;;22.90;36.50;;;;;;1564928;74;749;-66
2021/04/10 09:49:11;;;;;;;;;;;22.90;36.50;;;;;;1562797;74;773;-66
2021/04/10 09:51:14;;;;;;;;;;;22.90;36.50;;;;;;1539082;75;1335;-66
2021/04/10 09:53:19;;;;;;;;;;;22.90;36.50;;;;;;1530541;75;754;-65
2021/04/10 09:55:21;;;;;;;;;;;22.90;36.60;;;;;;1566676;74;1155;-66
2021/04/10 09:57:23;;;;;;;;;;;22.90;36.50;;;;;;1561645;74;758;-66
2021/04/10 09:59:25;;;;;;;;;;;22.90;36.50;;;;;;1568668;74;1942;-66
2021/04/10 10:01:29;;;;;;;;;;;22.90;36.50;;;;;;1564166;74;762;-66
2021/04/10 10:03:31;;;;;;;;;;;22.90;36.40;;;;;;1561566;74;1697;-66
2021/04/10 10:05:33;;;;;;;;;;;22.90;36.40;;;;;;1563306;71;220997;-72
2021/04/10 10:07:35;;;;;;;;;;;22.90;36.40;;;;;;1555860;75;702;-69
2021/04/10 10:09:37;;;;;;;;;;;22.90;36.40;;;;;;1561018;75;788;-70
2021/04/10 10:11:40;;;;;;;;;;;22.90;36.30;;;;;;1554885;75;774;-70
2021/04/10 10:13:43;;;;;;;;;;;22.90;36.30;;;;;;1563878;75;1679;-70
2021/04/10 10:15:45;;;;;;;;;;;22.90;36.30;;;;;;1560221;75;1162;-70
2021/04/10 10:17:47;;;;;;;;;;;22.80;36.20;;;;;;1530633;75;1935;-73
2021/04/10 10:19:48;;;;;;;;;;;22.90;36.30;;;;;;1532772;76;689;-71
2021/04/10 10:21:50;;;;;;;;;;;22.90;36.20;;;;;;1536304;76;684;-74
2021/04/10 10:23:57;;;;;;;;;;;22.90;36.30;;;;;;1534584;77;744;-67
2021/04/10 10:26:12;;;;;;;;;;;22.90;36.30;;;;;;1531769;76;1114;-74
2021/04/10 10:28:14;;;;;;;;;;;22.80;36.10;;;;;;1532487;75;730;-70
2021/04/10 10:30:19;;;;;;;;;;;22.90;36.30;;;;;;1531243;76;722;-71
2021/04/10 10:32:21;;;;;;;;;;;22.80;36.00;;;;;;1529358;75;757;-73
2021/04/10 10:34:24;;;;;;;;;;;22.80;36.00;;;;;;1532409;77;746;-70
2021/04/10 10:36:27;;;;;;;;;;;22.90;36.20;;;;;;1527493;77;1101;-71
2021/04/10 10:38:36;;;;;;;;;;;22.80;36.10;;;;;;1534091;75;1955;-73
2021/04/10 10:40:38;;;;;;;;;;;22.80;36.00;;;;;;1531261;75;746;-74
2021/04/10 10:42:40;;;;;;;;;;;22.80;36.00;;;;;;1529024;76;698;-71
2021/04/10 10:44:42;;;;;;;;;;;22.80;36.00;;;;;;1531122;75;812;-69
2021/04/10 10:46:44;;;;;;;;;;;22.80;36.00;;;;;;1519505;76;1136;-71
2021/04/10 10:48:46;;;;;;;;;;;22.70;36.00;;;;;;1525886;76;746;-70
2021/04/10 10:50:49;;;;;;;;;;;22.80;36.00;;;;;;1528476;76;725;-71
2021/04/10 10:52:53;;;;;;;;;;;22.80;36.00;;;;;;1528309;75;790;-70
2021/04/10 10:54:56;;;;;;;;;;;22.80;36.00;;;;;;1530759;75;1229;-71
2021/04/10 10:56:58;;;;;;;;;;;22.80;36.00;;;;;;1531783;76;1959;-70
2021/04/10 10:59:02;;;;;;;;;;;22.70;36.00;;;;;;1533940;76;1951;-75
2021/04/10 11:01:05;;;;;;;;;;;22.70;36.00;;;;;;1527160;76;1799;-70
2021/04/10 11:03:07;;;;;;;;;;;22.70;36.00;;;;;;1532747;75;1696;-72
2021/04/10 11:05:09;;;;;;;;;;;22.70;36.00;;;;;;1527108;76;738;-70
2021/04/10 11:07:11;;;;;;;;;;;22.80;36.00;;;;;;1532243;75;1147;-71
2021/04/10 11:09:23;;;;;;;;;;;22.80;35.80;;;;;;1538089;76;750;-73
2021/04/10 11:11:27;;;;;;;;;;;22.80;36.00;;;;;;1544281;75;812;-70
2021/04/10 11:13:29;;;;;;;;;;;22.70;36.00;;;;;;1538394;75;785;-70
2021/04/10 11:15:30;;;;;;;;;;;22.80;36.00;;;;;;1524902;76;1154;-70
2021/04/10 11:17:33;;;;;;;;;;;22.70;36.00;;;;;;1523902;75;811;-69
2021/04/10 11:19:35;;;;;;;;;;;22.80;36.00;;;;;;1528235;77;1926;-71
2021/04/10 11:21:37;;;;;;;;;;;22.70;36.00;;;;;;1539198;75;742;-70
2021/04/10 11:23:44;;;;;;;;;;;22.70;36.70;;;;;;1539401;77;790;-70
2021/04/10 11:25:52;;;;;;;;;;;22.60;36.70;;;;;;1540692;75;1990;-72
2021/04/10 11:27:54;;;;;;;;;;;22.50;37.30;;;;;;1537386;75;747;-68
2021/04/10 11:29:59;;;;;;;;;;;22.40;37.20;;;;;;1545429;75;747;-68
2021/04/10 11:32:05;;;;;;;;;;;22.40;37.30;;;;;;1539700;76;1459;-73
2021/04/10 11:34:25;;;;;;;;;;;22.40;37.30;;;;;;1533626;75;706;-71
2021/04/10 11:36:27;;;;;;;;;;;22.50;37.30;;;;;;1525747;77;1133;-70
2021/04/10 11:38:29;;;;;;;;;;;22.60;37.00;;;;;;1510638;77;1947;-72
2021/04/10 11:40:34;;;;;;;;;;;22.70;36.80;;;;;;1537754;76;813;-73
2021/04/10 11:42:42;;;;;;;;;;;22.80;36.50;;;;;;1531890;75;801;-71
2021/04/10 11:44:40;;;;;;;;;;;22.80;36.30;;;;;;1524705;75;1072;-70
2021/04/10 11:46:42;;;;;;;;;;;22.80;36.00;;;;;;1532700;76;1105;-71
2021/04/10 11:48:44;;;;;;;;;;;22.80;35.90;;;;;;1537988;76;692;-71
2021/04/10 11:50:47;;;;;;;;;;;22.80;35.80;;;;;;1536266;76;742;-73
2021/04/10 11:52:49;;;;;;;;;;;22.80;35.70;;;;;;1538195;75;716;-71
2021/04/10 11:54:53;;;;;;;;;;;22.80;35.60;;;;;;1544073;76;825;-70
2021/04/10 11:56:55;;;;;;;;;;;22.90;35.70;;;;;;1530129;76;1859;-71
2021/04/10 11:59:04;;;;;;;;;;;22.80;35.50;;;;;;1544546;76;1946;-71
2021/04/10 12:01:10;;;;;;;;;;;22.80;35.40;;;;;;1530268;75;690;-71
2021/04/10 12:03:14;;;;;;;;;;;22.80;35.30;;;;;;1527011;75;1045;-71
2021/04/10 12:05:23;;;;;;;;;;;22.80;35.30;;;;;;1531520;76;1138;-68
2021/04/10 12:07:26;;;;;;;;;;;22.90;35.40;;;;;;1531898;76;789;-71
2021/04/10 12:09:27;;;;;;;;;;;22.90;35.40;;;;;;1528856;76;683;-70
2021/04/10 12:11:29;;;;;;;;;;;22.90;35.40;;;;;;1535800;75;738;-70
2021/04/10 12:13:31;;;;;;;;;;;22.90;35.30;;;;;;1532855;75;703;-71